createdAt,value
2016-12-11T00:00:23.913Z,0
2016-12-11T00:01:34.950Z,0
2016-12-11T00:02:46.137Z,0
2016-12-11T00:03:57.121Z,0
2016-12-11T00:05:08.117Z,0
2016-12-11T00:06:19.103Z,0
2016-12-11T00:07:30.142Z,0
2016-12-11T00:08:41.138Z,0
2016-12-11T00:09:52.128Z,0
2016-12-11T00:11:03.311Z,0
2016-12-11T00:12:14.294Z,0
2016-12-11T00:13:25.335Z,0
2016-12-11T00:14:36.324Z,0
2016-12-11T00:15:47.314Z,0
2016-12-11T00:16:58.506Z,0
2016-12-11T00:18:09.692Z,0
2016-12-11T00:19:20.739Z,0
2016-12-11T00:20:31.719Z,0
2016-12-11T00:21:42.714Z,0
2016-12-11T00:22:53.900Z,0
2016-12-11T00:24:04.891Z,0
2016-12-11T00:25:16.074Z,0
2016-12-11T00:26:27.061Z,0
2016-12-11T00:27:38.061Z,0
2016-12-11T00:28:49.036Z,0
2016-12-11T00:30:00.032Z,0
2016-12-11T00:31:11.030Z,0
2016-12-11T00:32:22.216Z,0
2016-12-11T00:33:33.213Z,0
2016-12-11T00:34:44.399Z,0
2016-12-11T00:35:55.390Z,0
2016-12-11T00:37:06.370Z,0
2016-12-11T00:38:17.367Z,0
2016-12-11T00:39:28.355Z,0
2016-12-11T00:40:39.337Z,0
2016-12-11T00:41:50.337Z,0
2016-12-11T00:43:01.332Z,0
2016-12-11T00:44:12.317Z,0
2016-12-11T00:45:23.350Z,0
2016-12-11T00:46:34.349Z,0
2016-12-11T00:47:45.333Z,0
2016-12-11T00:48:56.520Z,0
2016-12-11T00:50:07.568Z,0
2016-12-11T00:51:18.549Z,0
2016-12-11T00:52:29.538Z,0
2016-12-11T00:53:40.532Z,0
2016-12-11T00:54:51.523Z,0
2016-12-11T00:56:02.510Z,0
2016-12-11T00:57:13.498Z,0
2016-12-11T00:58:24.486Z,0
2016-12-11T00:59:35.469Z,0
2016-12-11T01:00:46.654Z,0
2016-12-11T01:01:57.652Z,0
2016-12-11T01:03:08.669Z,0
2016-12-11T01:04:19.654Z,0
2016-12-11T01:05:30.835Z,0
2016-12-11T01:06:41.828Z,0
2016-12-11T01:07:52.824Z,0
2016-12-11T01:09:03.817Z,0
2016-12-11T01:10:14.811Z,0
2016-12-11T01:11:26.005Z,0
2016-12-11T01:12:36.995Z,0
2016-12-11T01:13:47.988Z,0
2016-12-11T01:14:58.985Z,0
2016-12-11T01:16:09.975Z,0
2016-12-11T01:17:20.963Z,0
2016-12-11T01:18:31.958Z,0
2016-12-11T01:19:42.942Z,0
2016-12-11T01:20:53.930Z,0
2016-12-11T01:22:04.915Z,0
2016-12-11T01:23:15.951Z,0
2016-12-11T01:24:26.952Z,0
2016-12-11T01:25:37.946Z,0
2016-12-11T01:26:48.928Z,0
2016-12-11T01:27:59.929Z,0
2016-12-11T01:29:10.901Z,0
2016-12-11T01:30:21.888Z,0
2016-12-11T01:31:32.876Z,0
2016-12-11T01:32:43.858Z,0
2016-12-11T01:33:54.841Z,0
2016-12-11T01:35:05.835Z,0
2016-12-11T01:36:16.819Z,0
2016-12-11T01:37:27.807Z,0
2016-12-11T01:38:38.799Z,0
2016-12-11T01:39:49.988Z,0
2016-12-11T01:41:01.020Z,0
2016-12-11T01:42:12.210Z,0
2016-12-11T01:43:23.430Z,0
2016-12-11T01:44:34.422Z,0
2016-12-11T01:45:45.403Z,0
2016-12-11T01:46:56.391Z,0
2016-12-11T01:48:07.375Z,0
2016-12-11T01:49:18.357Z,0
2016-12-11T01:50:29.339Z,0
2016-12-11T01:51:40.365Z,0
2016-12-11T01:52:51.348Z,0
2016-12-11T01:54:02.331Z,0
2016-12-11T01:55:13.329Z,0
2016-12-11T01:56:24.327Z,0
2016-12-11T01:57:35.327Z,0
2016-12-11T01:58:46.309Z,0
2016-12-11T01:59:57.299Z,0
2016-12-11T02:01:08.286Z,0
2016-12-11T02:02:19.268Z,0
2016-12-11T02:03:30.282Z,0
2016-12-11T02:04:41.282Z,0
2016-12-11T02:05:52.467Z,0
2016-12-11T02:07:03.451Z,0
2016-12-11T02:08:14.435Z,0
2016-12-11T02:09:25.416Z,0
2016-12-11T02:10:36.411Z,0
2016-12-11T02:11:47.397Z,0
2016-12-11T02:12:58.625Z,0
2016-12-11T02:14:09.614Z,0
2016-12-11T02:15:20.593Z,0
2016-12-11T02:16:31.584Z,0
2016-12-11T02:17:42.585Z,0
2016-12-11T02:18:53.574Z,0
2016-12-11T02:20:04.561Z,0
2016-12-11T02:21:15.550Z,0
2016-12-11T02:22:26.546Z,0
2016-12-11T02:23:37.526Z,0
2016-12-11T02:24:48.719Z,0
2016-12-11T02:25:59.708Z,0
2016-12-11T02:27:10.697Z,0
2016-12-11T02:28:21.683Z,0
2016-12-11T02:29:32.677Z,0
2016-12-11T02:30:43.669Z,0
2016-12-11T02:31:54.654Z,0
2016-12-11T02:33:05.843Z,0
2016-12-11T02:34:16.885Z,0
2016-12-11T02:35:27.868Z,0
2016-12-11T02:36:38.865Z,0
2016-12-11T02:37:49.849Z,0
2016-12-11T02:39:00.848Z,0
2016-12-11T02:40:12.039Z,0
2016-12-11T02:41:23.025Z,0
2016-12-11T02:42:34.019Z,0
2016-12-11T02:43:45.005Z,0
2016-12-11T02:44:55.985Z,0
2016-12-11T02:46:06.970Z,0
2016-12-11T02:47:17.948Z,0
2016-12-11T02:48:29.128Z,0
2016-12-11T02:49:40.115Z,0
2016-12-11T02:50:51.107Z,0
2016-12-11T02:52:02.098Z,0
2016-12-11T02:53:13.095Z,0
2016-12-11T02:54:24.105Z,0
2016-12-11T02:55:35.093Z,0
2016-12-11T02:56:46.079Z,0
2016-12-11T02:57:57.265Z,0
2016-12-11T02:59:08.255Z,0
2016-12-11T03:00:19.446Z,0
2016-12-11T03:01:30.433Z,0
2016-12-11T03:02:41.421Z,0
2016-12-11T03:03:52.418Z,0
2016-12-11T03:05:03.413Z,0
2016-12-11T03:06:14.401Z,0
2016-12-11T03:07:25.382Z,0
2016-12-11T03:08:36.569Z,0
2016-12-11T03:09:47.567Z,0
2016-12-11T03:10:58.611Z,0
2016-12-11T03:12:09.804Z,0
2016-12-11T03:13:20.792Z,0
2016-12-11T03:14:31.994Z,0
2016-12-11T03:15:43.029Z,0
2016-12-11T03:16:54.214Z,0
2016-12-11T03:18:05.197Z,0
2016-12-11T03:19:16.183Z,0
2016-12-11T03:20:27.178Z,0
2016-12-11T03:21:38.209Z,0
2016-12-11T03:22:49.202Z,0
2016-12-11T03:24:00.196Z,0
2016-12-11T03:25:11.187Z,0
2016-12-11T03:26:22.580Z,0
2016-12-11T03:27:33.625Z,0
2016-12-11T03:28:44.618Z,0
2016-12-11T03:29:55.622Z,0
2016-12-11T03:31:06.850Z,0
2016-12-11T03:32:17.838Z,0
2016-12-11T03:33:29.082Z,0
2016-12-11T03:34:40.067Z,0
2016-12-11T03:35:51.251Z,0
2016-12-11T03:37:02.238Z,0
2016-12-11T03:38:13.223Z,0
2016-12-11T03:39:24.266Z,0
2016-12-11T03:40:35.257Z,0
2016-12-11T03:41:46.252Z,0
2016-12-11T03:42:57.246Z,0
2016-12-11T03:44:08.239Z,0
2016-12-11T03:45:19.225Z,0
2016-12-11T03:46:30.213Z,0
2016-12-11T03:47:41.196Z,0
2016-12-11T03:48:52.181Z,0
2016-12-11T03:50:03.175Z,0
2016-12-11T03:51:14.168Z,0
2016-12-11T03:52:25.144Z,0
2016-12-11T03:53:36.141Z,0
2016-12-11T03:54:47.142Z,0
2016-12-11T03:55:58.336Z,0
2016-12-11T03:57:09.321Z,0
2016-12-11T03:58:20.314Z,0
2016-12-11T03:59:31.327Z,0
2016-12-11T04:00:42.310Z,0
2016-12-11T04:01:53.296Z,0
2016-12-11T04:03:04.316Z,0
2016-12-11T04:04:15.709Z,0
2016-12-11T04:05:26.903Z,0
2016-12-11T04:06:37.900Z,0
2016-12-11T04:07:48.892Z,0
2016-12-11T04:09:00.077Z,0
2016-12-11T04:10:11.092Z,0
2016-12-11T04:11:22.075Z,0
2016-12-11T04:12:33.072Z,0
2016-12-11T04:13:44.062Z,0
2016-12-11T04:14:55.046Z,0
2016-12-11T04:16:06.042Z,0
2016-12-11T04:17:17.235Z,0
2016-12-11T04:18:28.220Z,0
2016-12-11T04:19:39.219Z,0
2016-12-11T04:20:50.204Z,0
2016-12-11T04:22:01.396Z,0
2016-12-11T04:23:12.591Z,0
2016-12-11T04:24:23.603Z,0
2016-12-11T04:25:34.587Z,0
2016-12-11T04:26:45.572Z,0
2016-12-11T04:27:56.556Z,0
2016-12-11T04:29:07.549Z,0
2016-12-11T04:30:18.532Z,0
2016-12-11T04:31:29.519Z,0
2016-12-11T04:32:40.538Z,0
2016-12-11T04:33:51.524Z,0
2016-12-11T04:35:02.565Z,0
2016-12-11T04:36:13.558Z,0
2016-12-11T04:37:24.558Z,0
2016-12-11T04:38:35.747Z,0
2016-12-11T04:39:46.742Z,0
2016-12-11T04:40:57.719Z,0
2016-12-11T04:42:08.913Z,0
2016-12-11T04:43:19.905Z,0
2016-12-11T04:44:31.293Z,0
2016-12-11T04:45:42.343Z,0
2016-12-11T04:46:53.337Z,0
2016-12-11T04:48:04.593Z,0
2016-12-11T04:49:15.577Z,0
2016-12-11T04:50:26.572Z,0
2016-12-11T04:51:37.604Z,0
2016-12-11T04:52:48.596Z,0
2016-12-11T04:53:59.618Z,0
2016-12-11T04:55:10.609Z,0
2016-12-11T04:56:21.610Z,0
2016-12-11T04:57:32.646Z,0
2016-12-11T04:58:43.645Z,0
2016-12-11T04:59:54.836Z,0
2016-12-11T05:01:05.834Z,0
2016-12-11T05:02:16.824Z,0
2016-12-11T05:03:27.894Z,0
2016-12-11T05:04:38.887Z,0
2016-12-11T05:05:49.879Z,0
2016-12-11T05:07:01.064Z,0
2016-12-11T05:08:12.062Z,0
2016-12-11T05:09:23.104Z,0
2016-12-11T05:10:34.109Z,0
2016-12-11T05:11:45.096Z,0
2016-12-11T05:12:56.084Z,0
2016-12-11T05:14:07.074Z,0
2016-12-11T05:15:18.519Z,0
2016-12-11T05:16:29.506Z,0
2016-12-11T05:17:40.490Z,0
2016-12-11T05:18:51.678Z,0
2016-12-11T05:20:02.669Z,0
2016-12-11T05:21:13.659Z,0
2016-12-11T05:22:24.846Z,0
2016-12-11T05:23:35.833Z,0
2016-12-11T05:24:46.848Z,0
2016-12-11T05:25:57.883Z,0
2016-12-11T05:27:08.877Z,0
2016-12-11T05:28:19.867Z,0
2016-12-11T05:29:30.858Z,0
2016-12-11T05:30:42.046Z,0
2016-12-11T05:31:53.028Z,0
2016-12-11T05:33:04.222Z,0
2016-12-11T05:34:15.214Z,0
2016-12-11T05:35:26.283Z,0
2016-12-11T05:36:37.470Z,0
2016-12-11T05:37:48.458Z,0
2016-12-11T05:38:59.438Z,0
2016-12-11T05:40:10.486Z,0
2016-12-11T05:41:21.675Z,0
2016-12-11T05:42:32.669Z,0
2016-12-11T05:43:43.653Z,0
2016-12-11T05:44:54.644Z,0
2016-12-11T05:46:05.702Z,0
2016-12-11T05:47:16.886Z,0
2016-12-11T05:48:27.888Z,0
2016-12-11T05:49:38.883Z,0
2016-12-11T05:50:49.875Z,0
2016-12-11T05:52:00.859Z,0
2016-12-11T05:53:11.863Z,0
2016-12-11T05:54:22.852Z,0
2016-12-11T05:55:33.845Z,0
2016-12-11T05:56:44.833Z,0
2016-12-11T05:57:55.827Z,0
2016-12-11T05:59:07.017Z,0
2016-12-11T06:00:18.005Z,0
2016-12-11T06:01:28.987Z,0
2016-12-11T06:02:39.973Z,0
2016-12-11T06:03:50.967Z,0
2016-12-11T06:05:01.959Z,0
2016-12-11T06:06:12.953Z,0
2016-12-11T06:07:23.947Z,0
2016-12-11T06:08:34.945Z,0
2016-12-11T06:09:45.928Z,0
2016-12-11T06:10:56.916Z,0
2016-12-11T06:12:07.899Z,0
2016-12-11T06:13:18.880Z,0
2016-12-11T06:14:29.876Z,0
2016-12-11T06:15:40.874Z,0
2016-12-11T06:16:51.857Z,0
2016-12-11T06:18:02.842Z,0
2016-12-11T06:19:14.040Z,0
2016-12-11T06:20:25.029Z,0
2016-12-11T06:21:36.024Z,0
2016-12-11T06:22:47.011Z,0
2016-12-11T06:23:57.998Z,0
2016-12-11T06:25:08.979Z,0
2016-12-11T06:26:19.974Z,0
2016-12-11T06:27:30.964Z,0
2016-12-11T06:28:42.166Z,0
2016-12-11T06:29:53.152Z,0
2016-12-11T06:31:04.137Z,0
2016-12-11T06:32:15.129Z,0
2016-12-11T06:33:26.312Z,0
2016-12-11T06:34:37.305Z,0
2016-12-11T06:35:48.292Z,0
2016-12-11T06:36:59.488Z,0
2016-12-11T06:38:10.488Z,0
2016-12-11T06:39:21.672Z,0
2016-12-11T06:40:32.655Z,0
2016-12-11T06:41:43.644Z,0
2016-12-11T06:42:54.622Z,0
2016-12-11T06:44:05.811Z,0
2016-12-11T06:45:16.800Z,0
2016-12-11T06:46:27.789Z,0
2016-12-11T06:47:38.778Z,0
2016-12-11T06:48:49.765Z,0
2016-12-11T06:50:00.750Z,0
2016-12-11T06:51:11.738Z,0
2016-12-11T06:52:22.728Z,0
2016-12-11T06:53:33.720Z,0
2016-12-11T06:54:44.704Z,0
2016-12-11T06:55:55.690Z,0
2016-12-11T06:57:06.672Z,4
2016-12-11T06:58:17.659Z,0
2016-12-11T06:59:28.669Z,4
2016-12-11T07:00:39.657Z,4
2016-12-11T07:01:50.641Z,8
2016-12-11T07:03:01.636Z,8
2016-12-11T07:04:12.629Z,8
2016-12-11T07:05:23.622Z,8
2016-12-11T07:06:34.605Z,12
2016-12-11T07:07:45.591Z,12
2016-12-11T07:08:56.580Z,12
2016-12-11T07:10:07.615Z,12
2016-12-11T07:11:18.596Z,16
2016-12-11T07:12:29.791Z,20
2016-12-11T07:13:40.783Z,20
2016-12-11T07:14:51.768Z,24
2016-12-11T07:16:02.761Z,28
2016-12-11T07:17:13.746Z,32
2016-12-11T07:18:24.734Z,40
2016-12-11T07:19:35.723Z,48
2016-12-11T07:20:46.911Z,48
2016-12-11T07:21:57.909Z,48
2016-12-11T07:23:08.895Z,48
2016-12-11T07:24:20.282Z,68
2016-12-11T07:25:31.266Z,76
2016-12-11T07:26:42.249Z,96
2016-12-11T07:27:53.230Z,100
2016-12-11T07:29:04.224Z,124
2016-12-11T07:30:15.411Z,148
2016-12-11T07:31:26.403Z,144
2016-12-11T07:32:37.389Z,160
2016-12-11T07:33:48.369Z,204
2016-12-11T07:34:59.750Z,256
2016-12-11T07:36:10.792Z,236
2016-12-11T07:37:21.787Z,220
2016-12-11T07:38:32.975Z,212
2016-12-11T07:39:43.966Z,220
2016-12-11T07:40:54.953Z,216
2016-12-11T07:42:05.941Z,196
2016-12-11T07:43:16.929Z,204
2016-12-11T07:44:28.112Z,204
2016-12-11T07:45:39.298Z,200
2016-12-11T07:46:50.286Z,200
2016-12-11T07:48:01.278Z,224
2016-12-11T07:49:12.267Z,232
2016-12-11T07:50:23.260Z,240
2016-12-11T07:51:34.242Z,244
2016-12-11T07:52:45.224Z,248
2016-12-11T07:53:56.227Z,232
2016-12-11T07:55:07.219Z,196
2016-12-11T07:56:18.208Z,180
2016-12-11T07:57:29.202Z,196
2016-12-11T07:58:40.190Z,220
2016-12-11T07:59:51.178Z,264
2016-12-11T08:01:02.215Z,308
2016-12-11T08:02:13.217Z,336
2016-12-11T08:03:24.201Z,320
2016-12-11T08:04:35.191Z,336
2016-12-11T08:05:46.385Z,356
2016-12-11T08:06:57.420Z,368
2016-12-11T08:08:08.398Z,348
2016-12-11T08:09:19.385Z,356
2016-12-11T08:10:30.372Z,344
2016-12-11T08:11:41.559Z,416
2016-12-11T08:12:52.825Z,420
2016-12-11T08:14:03.815Z,396
2016-12-11T08:15:14.814Z,420
2016-12-11T08:16:25.794Z,500
2016-12-11T08:17:36.780Z,544
2016-12-11T08:18:47.817Z,600
2016-12-11T08:19:59.000Z,640
2016-12-11T08:21:10.013Z,624
2016-12-11T08:22:20.999Z,616
2016-12-11T08:23:31.988Z,700
2016-12-11T08:24:43.026Z,776
2016-12-11T08:25:54.012Z,792
2016-12-11T08:27:04.992Z,912
2016-12-11T08:28:15.976Z,1144
2016-12-11T08:29:26.967Z,1276
2016-12-11T08:30:37.960Z,1360
2016-12-11T08:31:48.953Z,1472
2016-12-11T08:32:59.936Z,1612
2016-12-11T08:34:10.925Z,1820
2016-12-11T08:35:21.912Z,1588
2016-12-11T08:36:32.895Z,1152
2016-12-11T08:37:43.884Z,1140
2016-12-11T08:38:54.859Z,1220
2016-12-11T08:40:05.893Z,1412
2016-12-11T08:41:17.083Z,1616
2016-12-11T08:42:28.078Z,1420
2016-12-11T08:43:39.058Z,1512
2016-12-11T08:44:50.058Z,1680
2016-12-11T08:46:01.039Z,1836
2016-12-11T08:47:12.028Z,1356
2016-12-11T08:48:23.024Z,1312
2016-12-11T08:49:34.012Z,1496
2016-12-11T08:50:45.022Z,2068
2016-12-11T08:51:56.015Z,1892
2016-12-11T08:53:07.001Z,2156
2016-12-11T08:54:17.988Z,1324
2016-12-11T08:55:29.014Z,1596
2016-12-11T08:56:40.025Z,2252
2016-12-11T08:57:51.007Z,1596
2016-12-11T08:59:02.010Z,1656
2016-12-11T09:00:13.017Z,1656
2016-12-11T09:01:24.005Z,1512
2016-12-11T09:02:34.989Z,1680
2016-12-11T09:03:46.169Z,1828
2016-12-11T09:04:57.153Z,1960
2016-12-11T09:06:08.344Z,1976
2016-12-11T09:07:19.334Z,2656
2016-12-11T09:08:30.315Z,2628
2016-12-11T09:09:41.304Z,2440
2016-12-11T09:10:52.285Z,2144
2016-12-11T09:12:03.279Z,2140
2016-12-11T09:13:14.261Z,1540
2016-12-11T09:14:25.442Z,1196
2016-12-11T09:15:36.433Z,1240
2016-12-11T09:16:47.457Z,1068
2016-12-11T09:17:58.440Z,820
2016-12-11T09:19:09.434Z,924
2016-12-11T09:20:20.464Z,840
2016-12-11T09:21:31.446Z,1204
2016-12-11T09:22:42.435Z,1100
2016-12-11T09:23:53.431Z,1044
2016-12-11T09:25:04.414Z,1248
2016-12-11T09:26:15.411Z,1940
2016-12-11T09:27:26.398Z,2432
2016-12-11T09:28:37.423Z,1128
2016-12-11T09:29:48.405Z,1084
2016-12-11T09:30:59.383Z,1356
2016-12-11T09:32:10.367Z,1540
2016-12-11T09:33:21.562Z,1752
2016-12-11T09:34:32.548Z,1624
2016-12-11T09:35:43.537Z,1028
2016-12-11T09:36:54.729Z,864
2016-12-11T09:38:05.718Z,1300
2016-12-11T09:39:16.696Z,2148
2016-12-11T09:40:27.882Z,2372
2016-12-11T09:41:38.853Z,2848
2016-12-11T09:42:50.050Z,2768
2016-12-11T09:44:01.041Z,2344
2016-12-11T09:45:12.024Z,2236
2016-12-11T09:46:23.006Z,2316
2016-12-11T09:47:34.199Z,2440
2016-12-11T09:48:45.594Z,2764
2016-12-11T09:49:56.583Z,3120
2016-12-11T09:51:07.762Z,3156
2016-12-11T09:52:18.751Z,3932
2016-12-11T09:53:29.748Z,4520
2016-12-11T09:54:40.939Z,5836
2016-12-11T09:55:51.933Z,6748
2016-12-11T09:57:02.928Z,10976
2016-12-11T09:58:13.913Z,8868
2016-12-11T09:59:24.898Z,9088
2016-12-11T10:00:35.888Z,7920
2016-12-11T10:01:46.882Z,7928
2016-12-11T10:02:57.890Z,5328
2016-12-11T10:04:08.880Z,4228
2016-12-11T10:05:19.869Z,4108
2016-12-11T10:06:31.048Z,4596
2016-12-11T10:07:42.037Z,4368
2016-12-11T10:08:53.226Z,3660
2016-12-11T10:10:04.213Z,3072
2016-12-11T10:11:15.211Z,2040
2016-12-11T10:12:26.201Z,1244
2016-12-11T10:13:37.593Z,1264
2016-12-11T10:14:48.575Z,1680
2016-12-11T10:15:59.563Z,2340
2016-12-11T10:17:10.952Z,3004
2016-12-11T10:18:21.971Z,2632
2016-12-11T10:19:32.962Z,2500
2016-12-11T10:20:43.952Z,2916
2016-12-11T10:21:54.940Z,2112
2016-12-11T10:23:05.935Z,2116
2016-12-11T10:24:17.125Z,2892
2016-12-11T10:25:28.109Z,3648
2016-12-11T10:26:39.095Z,3780
2016-12-11T10:27:50.279Z,3436
2016-12-11T10:29:01.670Z,4704
2016-12-11T10:30:12.661Z,8208
2016-12-11T10:31:23.643Z,20096
2016-12-11T10:32:34.631Z,22336
2016-12-11T10:33:45.619Z,16160
2016-12-11T10:34:56.620Z,19808
2016-12-11T10:36:07.604Z,43840
2016-12-11T10:37:18.594Z,14756
2016-12-11T10:38:29.607Z,39264
2016-12-11T10:39:40.600Z,7872
2016-12-11T10:40:51.588Z,21120
2016-12-11T10:42:02.579Z,40192
2016-12-11T10:43:13.568Z,10312
2016-12-11T10:44:24.559Z,8088
2016-12-11T10:45:35.759Z,4764
2016-12-11T10:46:46.744Z,4824
2016-12-11T10:47:57.933Z,4312
2016-12-11T10:49:08.922Z,4808
2016-12-11T10:50:19.907Z,5680
2016-12-11T10:51:30.905Z,6152
2016-12-11T10:52:41.898Z,6640
2016-12-11T10:53:52.889Z,5912
2016-12-11T10:55:03.885Z,5388
2016-12-11T10:56:14.870Z,6356
2016-12-11T10:57:25.860Z,6856
2016-12-11T10:58:36.846Z,4484
2016-12-11T10:59:47.835Z,4236
2016-12-11T11:00:58.835Z,3644
2016-12-11T11:02:09.829Z,3376
2016-12-11T11:03:20.821Z,3236
2016-12-11T11:04:31.820Z,3040
2016-12-11T11:05:42.814Z,2612
2016-12-11T11:06:53.825Z,2188
2016-12-11T11:08:04.808Z,1796
2016-12-11T11:09:15.830Z,1852
2016-12-11T11:10:26.813Z,2276
2016-12-11T11:11:37.806Z,3020
2016-12-11T11:12:48.801Z,4128
2016-12-11T11:13:59.792Z,5660
2016-12-11T11:15:10.776Z,5440
2016-12-11T11:16:21.770Z,4048
2016-12-11T11:17:32.766Z,4188
2016-12-11T11:18:43.767Z,7860
2016-12-11T11:19:54.805Z,8488
2016-12-11T11:21:05.803Z,5992
2016-12-11T11:22:16.780Z,3756
2016-12-11T11:23:27.766Z,2664
2016-12-11T11:24:38.752Z,1760
2016-12-11T11:25:49.746Z,1208
2016-12-11T11:27:00.732Z,1164
2016-12-11T11:28:11.726Z,1168
2016-12-11T11:29:22.714Z,1184
2016-12-11T11:30:33.699Z,1392
2016-12-11T11:31:44.716Z,2128
2016-12-11T11:32:55.701Z,4252
2016-12-11T11:34:06.686Z,4632
2016-12-11T11:35:17.729Z,5172
2016-12-11T11:36:28.712Z,3392
2016-12-11T11:37:39.902Z,3948
2016-12-11T11:38:50.883Z,4576
2016-12-11T11:40:01.878Z,5220
2016-12-11T11:41:12.918Z,3912
2016-12-11T11:42:24.102Z,3424
2016-12-11T11:43:35.092Z,3344
2016-12-11T11:44:46.085Z,5980
2016-12-11T11:45:57.078Z,9204
2016-12-11T11:47:08.115Z,7812
2016-12-11T11:48:19.114Z,9608
2016-12-11T11:49:30.107Z,10684
2016-12-11T11:50:41.295Z,17856
2016-12-11T11:51:52.284Z,11180
2016-12-11T11:53:03.323Z,9084
2016-12-11T11:54:14.316Z,5604
2016-12-11T11:55:25.507Z,6872
2016-12-11T11:56:36.488Z,10356
2016-12-11T11:57:47.681Z,7148
2016-12-11T11:58:58.727Z,13908
2016-12-11T12:00:09.726Z,9704
2016-12-11T12:01:20.715Z,7244
2016-12-11T12:02:31.709Z,4876
2016-12-11T12:03:42.693Z,5572
2016-12-11T12:04:53.726Z,5068
2016-12-11T12:06:04.707Z,6476
2016-12-11T12:07:15.695Z,4576
2016-12-11T12:08:26.688Z,4036
2016-12-11T12:09:37.674Z,3804
2016-12-11T12:10:48.663Z,4788
2016-12-11T12:11:59.663Z,4536
2016-12-11T12:13:10.651Z,4372
2016-12-11T12:14:21.642Z,3948
2016-12-11T12:15:32.635Z,3856
2016-12-11T12:16:43.828Z,4104
2016-12-11T12:17:55.019Z,3844
2016-12-11T12:19:06.005Z,2784
2016-12-11T12:20:17.199Z,4688
2016-12-11T12:21:28.184Z,2896
2016-12-11T12:22:39.174Z,2320
2016-12-11T12:23:50.168Z,1972
2016-12-11T12:25:01.162Z,1856
2016-12-11T12:26:12.147Z,1852
2016-12-11T12:27:23.334Z,2060
2016-12-11T12:28:34.528Z,2140
2016-12-11T12:29:45.515Z,2008
2016-12-11T12:30:56.502Z,1760
2016-12-11T12:32:07.498Z,1544
2016-12-11T12:33:18.486Z,1416
2016-12-11T12:34:29.475Z,1364
2016-12-11T12:35:40.455Z,1320
2016-12-11T12:36:51.444Z,1260
2016-12-11T12:38:02.434Z,952
2016-12-11T12:39:13.826Z,856
2016-12-11T12:40:24.815Z,916
2016-12-11T12:41:35.800Z,984
2016-12-11T12:42:46.794Z,1188
2016-12-11T12:43:57.798Z,1172
2016-12-11T12:45:09.245Z,1100
2016-12-11T12:46:20.269Z,1220
2016-12-11T12:47:31.460Z,1284
2016-12-11T12:48:42.653Z,1276
2016-12-11T12:49:53.640Z,1232
2016-12-11T12:51:04.671Z,1020
2016-12-11T12:52:15.662Z,1104
2016-12-11T12:53:26.660Z,1136
2016-12-11T12:54:37.642Z,984
2016-12-11T12:55:48.633Z,1016
2016-12-11T12:56:59.663Z,1184
2016-12-11T12:58:10.654Z,1432
2016-12-11T12:59:21.640Z,1384
2016-12-11T13:00:32.822Z,1224
2016-12-11T13:01:43.813Z,1108
2016-12-11T13:02:54.860Z,1256
2016-12-11T13:04:05.845Z,1128
2016-12-11T13:05:17.029Z,852
2016-12-11T13:06:28.021Z,944
2016-12-11T13:07:39.012Z,1140
2016-12-11T13:08:50.047Z,1412
2016-12-11T13:10:01.235Z,1252
2016-12-11T13:11:12.228Z,1380
2016-12-11T13:12:23.423Z,1564
2016-12-11T13:13:34.415Z,1344
2016-12-11T13:14:45.453Z,1268
2016-12-11T13:15:56.441Z,1236
2016-12-11T13:17:07.628Z,1164
2016-12-11T13:18:18.615Z,960
2016-12-11T13:19:29.602Z,872
2016-12-11T13:20:40.587Z,888
2016-12-11T13:21:51.983Z,1076
2016-12-11T13:23:02.973Z,1136
2016-12-11T13:24:14.162Z,1344
2016-12-11T13:25:25.149Z,2000
2016-12-11T13:26:36.169Z,2632
2016-12-11T13:27:47.156Z,3220
2016-12-11T13:28:58.157Z,3096
2016-12-11T13:30:09.148Z,2928
2016-12-11T13:31:20.136Z,2760
2016-12-11T13:32:31.117Z,2608
2016-12-11T13:33:42.114Z,2328
2016-12-11T13:34:53.102Z,1996
2016-12-11T13:36:04.340Z,1692
2016-12-11T13:37:15.326Z,1444
2016-12-11T13:38:26.315Z,1308
2016-12-11T13:39:37.536Z,1256
2016-12-11T13:40:48.522Z,1188
2016-12-11T13:41:59.560Z,1100
2016-12-11T13:43:10.747Z,1052
2016-12-11T13:44:21.737Z,1040
2016-12-11T13:45:32.719Z,1028
2016-12-11T13:46:43.723Z,1056
2016-12-11T13:47:54.967Z,1216
2016-12-11T13:49:05.961Z,1412
2016-12-11T13:50:16.949Z,1388
2016-12-11T13:51:27.945Z,1260
2016-12-11T13:52:39.136Z,1148
2016-12-11T13:53:50.170Z,1052
2016-12-11T13:55:01.153Z,1008
2016-12-11T13:56:12.174Z,1036
2016-12-11T13:57:23.164Z,1076
2016-12-11T13:58:34.150Z,1124
2016-12-11T13:59:45.189Z,1176
2016-12-11T14:00:56.174Z,1232
2016-12-11T14:02:07.169Z,1212
2016-12-11T14:03:18.167Z,1120
2016-12-11T14:04:29.157Z,952
2016-12-11T14:05:40.199Z,776
2016-12-11T14:06:51.186Z,672
2016-12-11T14:08:02.206Z,644
2016-12-11T14:09:13.197Z,596
2016-12-11T14:10:24.185Z,492
2016-12-11T14:11:35.171Z,420
2016-12-11T14:12:46.160Z,392
2016-12-11T14:13:57.148Z,348
2016-12-11T14:15:08.140Z,344
2016-12-11T14:16:19.135Z,412
2016-12-11T14:17:30.120Z,424
2016-12-11T14:18:41.318Z,540
2016-12-11T14:19:52.338Z,604
2016-12-11T14:21:03.724Z,640
2016-12-11T14:22:14.712Z,724
2016-12-11T14:23:25.692Z,728
2016-12-11T14:24:36.675Z,748
2016-12-11T14:25:47.660Z,712
2016-12-11T14:26:58.847Z,680
2016-12-11T14:28:09.835Z,652
2016-12-11T14:29:20.821Z,600
2016-12-11T14:30:31.812Z,524
2016-12-11T14:31:43.006Z,472
2016-12-11T14:32:53.993Z,452
2016-12-11T14:34:04.978Z,388
2016-12-11T14:35:15.980Z,400
2016-12-11T14:36:27.203Z,420
2016-12-11T14:37:38.384Z,424
2016-12-11T14:38:49.369Z,440
2016-12-11T14:40:00.764Z,508
2016-12-11T14:41:11.753Z,516
2016-12-11T14:42:22.772Z,524
2016-12-11T14:43:33.764Z,508
2016-12-11T14:44:44.754Z,420
2016-12-11T14:45:55.740Z,300
2016-12-11T14:47:06.728Z,304
2016-12-11T14:48:17.705Z,324
2016-12-11T14:49:28.886Z,360
2016-12-11T14:50:39.885Z,360
2016-12-11T14:51:51.071Z,324
2016-12-11T14:53:13.954Z,288
2016-12-11T14:54:24.939Z,272
2016-12-11T14:55:36.146Z,264
2016-12-11T14:56:47.132Z,280
2016-12-11T14:57:58.325Z,280
2016-12-11T14:59:09.305Z,260
2016-12-11T15:00:20.295Z,228
2016-12-11T15:01:31.284Z,220
2016-12-11T15:02:42.273Z,212
2016-12-11T15:03:53.258Z,196
2016-12-11T15:05:04.250Z,180
2016-12-11T15:06:15.227Z,156
2016-12-11T15:07:26.213Z,132
2016-12-11T15:08:37.196Z,112
2016-12-11T15:09:48.188Z,96
2016-12-11T15:10:59.178Z,80
2016-12-11T15:12:10.161Z,80
2016-12-11T15:13:21.148Z,72
2016-12-11T15:14:32.133Z,68
2016-12-11T15:15:43.112Z,60
2016-12-11T15:16:54.306Z,48
2016-12-11T15:18:05.296Z,40
2016-12-11T15:19:16.280Z,36
2016-12-11T15:20:27.317Z,36
2016-12-11T15:21:38.308Z,36
2016-12-11T15:22:49.284Z,32
2016-12-11T15:24:00.271Z,36
2016-12-11T15:25:11.513Z,32
2016-12-11T15:26:22.502Z,32
2016-12-11T15:27:33.517Z,28
2016-12-11T15:28:44.500Z,24
2016-12-11T15:29:55.484Z,20
2016-12-11T15:31:06.522Z,16
2016-12-11T15:32:17.510Z,16
2016-12-11T15:33:28.507Z,12
2016-12-11T15:34:39.699Z,12
2016-12-11T15:35:50.692Z,8
2016-12-11T15:37:01.741Z,8
2016-12-11T15:38:12.729Z,8
2016-12-11T15:39:23.924Z,8
2016-12-11T15:40:34.917Z,4
2016-12-11T15:41:45.918Z,4
2016-12-11T15:42:57.155Z,4
2016-12-11T15:44:08.168Z,4
2016-12-11T15:45:19.157Z,4
2016-12-11T15:46:30.146Z,0
2016-12-11T15:47:41.144Z,0
2016-12-11T15:48:52.184Z,0
2016-12-11T15:50:03.177Z,0
2016-12-11T15:51:14.172Z,0
2016-12-11T15:52:25.157Z,0
2016-12-11T15:53:36.180Z,0
2016-12-11T15:54:47.216Z,0
2016-12-11T15:55:58.224Z,0
2016-12-11T15:57:09.213Z,0
2016-12-11T15:58:20.406Z,0
2016-12-11T15:59:31.389Z,0
2016-12-11T16:00:42.437Z,0
2016-12-11T16:01:53.635Z,0
2016-12-11T16:03:04.622Z,0
2016-12-11T16:04:15.633Z,0
2016-12-11T16:05:26.618Z,0
2016-12-11T16:06:37.608Z,0
2016-12-11T16:07:48.798Z,0
2016-12-11T16:08:59.784Z,0
2016-12-11T16:10:10.828Z,0
2016-12-11T16:11:21.814Z,0
2016-12-11T16:12:32.797Z,0
2016-12-11T16:13:43.788Z,0
2016-12-11T16:14:54.772Z,0
2016-12-11T16:16:05.803Z,0
2016-12-11T16:17:16.787Z,0
2016-12-11T16:18:27.975Z,0
2016-12-11T16:19:38.970Z,0
2016-12-11T16:20:49.959Z,0
2016-12-11T16:22:01.023Z,0
2016-12-11T16:23:12.206Z,0
2016-12-11T16:24:23.192Z,0
2016-12-11T16:25:34.182Z,0
2016-12-11T16:26:45.369Z,0
2016-12-11T16:27:56.607Z,0
2016-12-11T16:29:07.602Z,0
2016-12-11T16:30:18.577Z,0
2016-12-11T16:31:29.764Z,0
2016-12-11T16:32:40.742Z,0
2016-12-11T16:33:51.777Z,0
2016-12-11T16:35:02.760Z,0
2016-12-11T16:36:13.758Z,0
2016-12-11T16:37:24.741Z,0
2016-12-11T16:38:35.730Z,0
2016-12-11T16:39:46.764Z,0
2016-12-11T16:40:57.988Z,0
2016-12-11T16:42:08.987Z,0